Terminal Aerodrome Forecast
Issued by NWS Buffalo, NY

Home | Current Version | Previous Version | Text Only | Print | Product List | Glossary On
Versions: 1 2 3 4 5 6 7 8 9 10 11 12 13 14 15 16 17 18 19 20 21 22 23 24
000
FTUS41 KBUF 282300
TAFBUF
TAF
KBUF 282320Z 0100/0124 20006KT P6SM SKC
     FM010600 16005KT P6SM BKN150
     FM011200 15004KT P6SM VCSH OVC045
     FM011400 18005KT 4SM -SN OVC035
     FM011600 20005KT 2SM -SN OVC020=

USA.gov is the U.S. government's official web portal to all federal, state and local government web resources and services.